Water Guardian — MPUJ4 — position and weather

sailwx.info

Track history (hours):
 
Tides and Currents Weather Stations Pressure Air Temp Water Temp Dewpoint Dewpoint Depression Visibility Wind Speed Wind Dir Waves Ship Positions

Oceanographic research ship Water Guardian (UK)

Detailed information on ship capabilities available from University of Delaware's Ocean Information Center.

Last reported at 2017-Nov-18 08:38 UTC. Time now 2017-Nov-22 07:23 UTC.
Position N 50°45' E 000°26'.

; draft 2 m.

Type: Diving. MMSI: 235068128.

Date/timePositionNaut miles runAvg speedWind from/ knotsBaromVisibWave heightAir tempDewpointWater temp
2017-Nov-18 08:38N 50°45' E 000°26'2 9.4
2017-Nov-18 08:28N 50°45' E 000°23'13 9.9
2017-Nov-18 07:06N 50°40' E 000°04'1 9.5
2017-Nov-18 07:00N 50°40' E 000°02'5 9.2
2017-Nov-18 06:29N 50°38' W 000°05'4 8.7
2017-Nov-18 05:59N 50°36' W 000°11'4 8.2
2017-Nov-18 05:29N 50°35' W 000°18'4 8.0
2017-Nov-18 04:58N 50°36' W 000°24'4 7.7
2017-Nov-18 04:29N 50°37' W 000°30'  
Track history (hours):
 
Tides and Currents Weather Stations Pressure Air Temp Water Temp Dewpoint Dewpoint Depression Visibility Wind Speed Wind Dir Waves Ship Positions

Oceanographic research ship Water Guardian (UK)

Detailed information on ship capabilities available from University of Delaware's Ocean Information Center.

Last reported at 2017-Nov-18 08:38 UTC. Time now 2017-Nov-22 07:23 UTC.
Position N 50°45' E 000°26'.

; draft 2 m.

Type: Diving. MMSI: 235068128.

Date/timePositionNaut miles runAvg speedWind from/ knotsBaromVisibWave heightAir tempDewpointWater temp
2017-Nov-18 08:38N 50°45' E 000°26'2 9.4
2017-Nov-18 08:28N 50°45' E 000°23'13 9.9
2017-Nov-18 07:06N 50°40' E 000°04'1 9.5
2017-Nov-18 07:00N 50°40' E 000°02'5 9.2
2017-Nov-18 06:29N 50°38' W 000°05'4 8.7
2017-Nov-18 05:59N 50°36' W 000°11'4 8.2
2017-Nov-18 05:29N 50°35' W 000°18'4 8.0
2017-Nov-18 04:58N 50°36' W 000°24'4 7.7
2017-Nov-18 04:29N 50°37' W 000°30'  

Dump ship's entire track history